sensor_id;sensor_type;location;lat;lon;timestamp;pressure;altitude;pressure_sealevel;temperature;humidity
49611;BME280;35515;48.766;9.176;2022-10-16T00:00:12;98236.13;;;15.69;100.00
49611;BME280;35515;48.766;9.176;2022-10-16T00:02:39;98233.66;;;15.68;100.00
49611;BME280;35515;48.766;9.176;2022-10-16T00:05:05;98230.91;;;15.68;100.00
49611;BME280;35515;48.766;9.176;2022-10-16T00:07:32;98221.75;;;15.74;100.00
49611;BME280;35515;48.766;9.176;2022-10-16T00:09:58;98219.41;;;15.66;100.00
49611;BME280;35515;48.766;9.176;2022-10-16T00:12:25;98224.66;;;15.67;100.00
49611;BME280;35515;48.766;9.176;2022-10-16T00:14:53;98219.91;;;15.63;100.00
49611;BME280;35515;48.766;9.176;2022-10-16T00:17:19;98226.44;;;15.62;100.00
49611;BME280;35515;48.766;9.176;2022-10-16T00:19:46;98223.22;;;15.65;100.00
49611;BME280;35515;48.766;9.176;2022-10-16T00:22:12;98222.13;;;15.66;100.00
49611;BME280;35515;48.766;9.176;2022-10-16T00:24:39;98219.91;;;15.63;100.00
49611;BME280;35515;48.766;9.176;2022-10-16T00:27:05;98217.66;;;15.60;100.00
49611;BME280;35515;48.766;9.176;2022-10-16T00:29:32;98218.97;;;15.57;100.00
49611;BME280;35515;48.766;9.176;2022-10-16T00:32:00;98223.03;;;15.54;100.00
49611;BME280;35515;48.766;9.176;2022-10-16T00:34:26;98215.34;;;15.51;100.00
49611;BME280;35515;48.766;9.176;2022-10-16T00:36:53;98215.25;;;15.46;100.00
49611;BME280;35515;48.766;9.176;2022-10-16T00:39:19;98217.88;;;15.41;100.00
49611;BME280;35515;48.766;9.176;2022-10-16T00:41:46;98215.69;;;15.43;100.00
49611;BME280;35515;48.766;9.176;2022-10-16T00:44:46;98216.78;;;15.42;100.00
49611;BME280;35515;48.766;9.176;2022-10-16T00:47:18;98223.06;;;15.43;100.00
49611;BME280;35515;48.766;9.176;2022-10-16T00:49:46;98226.31;;;15.40;100.00
49611;BME280;35515;48.766;9.176;2022-10-16T00:52:14;98218.81;;;15.35;100.00
49611;BME280;35515;48.766;9.176;2022-10-16T00:54:41;98222.41;;;15.35;100.00
49611;BME280;35515;48.766;9.176;2022-10-16T00:57:07;98216.19;;;15.40;100.00
49611;BME280;35515;48.766;9.176;2022-10-16T00:59:36;98230.44;;;15.42;100.00
49611;BME280;35515;48.766;9.176;2022-10-16T01:02:04;98226.63;;;15.43;100.00
49611;BME280;35515;48.766;9.176;2022-10-16T01:04:35;98243.59;;;15.45;100.00
49611;BME280;35515;48.766;9.176;2022-10-16T01:07:07;98242.75;;;15.45;100.00
49611;BME280;35515;48.766;9.176;2022-10-16T01:09:44;98245.47;;;15.45;100.00
49611;BME280;35515;48.766;9.176;2022-10-16T01:12:15;98240.16;;;15.38;100.00
49611;BME280;35515;48.766;9.176;2022-10-16T01:14:48;98244.66;;;15.44;100.00
49611;BME280;35515;48.766;9.176;2022-10-16T01:17:19;98234.91;;;15.48;100.00
49611;BME280;35515;48.766;9.176;2022-10-16T01:20:09;98245.59;;;15.50;100.00
49611;BME280;35515;48.766;9.176;2022-10-16T01:22:48;98242.84;;;15.50;100.00
49611;BME280;35515;48.766;9.176;2022-10-16T01:25:23;98242.44;;;15.41;100.00
49611;BME280;35515;48.766;9.176;2022-10-16T01:27:53;98235.19;;;15.35;100.00
49611;BME280;35515;48.766;9.176;2022-10-16T01:30:23;98221.06;;;15.38;100.00
49611;BME280;35515;48.766;9.176;2022-10-16T01:32:56;98220.00;;;15.39;100.00
49611;BME280;35515;48.766;9.176;2022-10-16T01:35:24;98231.25;;;15.43;100.00
49611;BME280;35515;48.766;9.176;2022-10-16T01:37:54;98237.22;;;15.40;100.00
49611;BME280;35515;48.766;9.176;2022-10-16T01:40:26;98227.63;;;15.37;100.00
49611;BME280;35515;48.766;9.176;2022-10-16T01:42:58;98213.00;;;15.31;100.00
49611;BME280;35515;48.766;9.176;2022-10-16T01:45:28;98218.13;;;15.40;100.00
49611;BME280;35515;48.766;9.176;2022-10-16T01:47:57;98218.94;;;15.40;100.00
49611;BME280;35515;48.766;9.176;2022-10-16T01:50:26;98224.50;;;15.45;100.00
49611;BME280;35515;48.766;9.176;2022-10-16T01:52:55;98220.19;;;15.49;100.00
49611;BME280;35515;48.766;9.176;2022-10-16T01:55:26;98216.41;;;15.50;100.00
49611;BME280;35515;48.766;9.176;2022-10-16T01:57:57;98222.94;;;15.49;100.00
49611;BME280;35515;48.766;9.176;2022-10-16T02:00:27;98224.34;;;15.52;100.00
49611;BME280;35515;48.766;9.176;2022-10-16T02:02:54;98222.53;;;15.58;100.00
49611;BME280;35515;48.766;9.176;2022-10-16T02:05:28;98217.81;;;15.53;100.00
49611;BME280;35515;48.766;9.176;2022-10-16T02:07:57;98217.56;;;15.54;100.00
49611;BME280;35515;48.766;9.176;2022-10-16T02:10:24;98219.22;;;15.55;100.00
49611;BME280;35515;48.766;9.176;2022-10-16T02:12:57;98216.97;;;15.52;100.00
49611;BME280;35515;48.766;9.176;2022-10-16T02:15:25;98218.63;;;15.53;100.00
49611;BME280;35515;48.766;9.176;2022-10-16T02:17:52;98221.88;;;15.50;100.00
49611;BME280;35515;48.766;9.176;2022-10-16T02:20:22;98219.22;;;15.55;100.00
49611;BME280;35515;48.766;9.176;2022-10-16T02:22:52;98231.22;;;15.54;100.00
49611;BME280;35515;48.766;9.176;2022-10-16T02:25:24;98225.88;;;15.60;100.00
49611;BME280;35515;48.766;9.176;2022-10-16T02:27:54;98233.44;;;15.58;100.00
49611;BME280;35515;48.766;9.176;2022-10-16T02:30:27;98230.63;;;15.52;100.00
49611;BME280;35515;48.766;9.176;2022-10-16T02:32:56;98218.63;;;15.53;100.00
49611;BME280;35515;48.766;9.176;2022-10-16T02:35:25;98206.31;;;15.51;100.00
49611;BME280;35515;48.766;9.176;2022-10-16T02:37:53;98211.25;;;15.54;100.00
49611;BME280;35515;48.766;9.176;2022-10-16T02:40:21;98214.28;;;15.69;100.00
49611;BME280;35515;48.766;9.176;2022-10-16T02:42:50;98218.78;;;15.76;100.00
49611;BME280;35515;48.766;9.176;2022-10-16T02:45:18;98218.94;;;15.69;100.00
49611;BME280;35515;48.766;9.176;2022-10-16T02:47:46;98220.41;;;15.60;100.00
49611;BME280;35515;48.766;9.176;2022-10-16T02:50:13;98223.53;;;15.51;100.00
49611;BME280;35515;48.766;9.176;2022-10-16T02:52:39;98220.69;;;15.46;100.00
49611;BME280;35515;48.766;9.176;2022-10-16T02:55:06;98224.13;;;15.42;100.00
49611;BME280;35515;48.766;9.176;2022-10-16T02:57:33;98223.31;;;15.41;100.00
49611;BME280;35515;48.766;9.176;2022-10-16T03:00:02;98239.69;;;15.41;100.00
49611;BME280;35515;48.766;9.176;2022-10-16T03:02:29;98242.19;;;15.43;100.00
49611;BME280;35515;48.766;9.176;2022-10-16T03:04:57;98240.88;;;15.45;100.00
49611;BME280;35515;48.766;9.176;2022-10-16T03:07:23;98244.31;;;15.41;100.00
49611;BME280;35515;48.766;9.176;2022-10-16T03:09:50;98239.69;;;15.41;100.00
49611;BME280;35515;48.766;9.176;2022-10-16T03:12:16;98245.63;;;15.38;100.00
49611;BME280;35515;48.766;9.176;2022-10-16T03:14:43;98239.59;;;15.36;100.00
49611;BME280;35515;48.766;9.176;2022-10-16T03:17:09;98239.59;;;15.36;100.00
49611;BME280;35515;48.766;9.176;2022-10-16T03:19:36;98246.72;;;15.37;100.00
49611;BME280;35515;48.766;9.176;2022-10-16T03:22:03;98241.84;;;15.39;100.00
49611;BME280;35515;48.766;9.176;2022-10-16T03:24:30;98239.59;;;15.36;100.00
49611;BME280;35515;48.766;9.176;2022-10-16T03:26:57;98243.16;;;15.36;100.00
49611;BME280;35515;48.766;9.176;2022-10-16T03:29:23;98245.06;;;15.36;100.00
49611;BME280;35515;48.766;9.176;2022-10-16T03:31:51;98247.53;;;15.37;100.00
49611;BME280;35515;48.766;9.176;2022-10-16T03:34:17;98243.38;;;15.35;100.00
49611;BME280;35515;48.766;9.176;2022-10-16T03:36:44;98239.94;;;15.40;100.00
49611;BME280;35515;48.766;9.176;2022-10-16T03:39:11;98248.47;;;15.43;100.00
49611;BME280;35515;48.766;9.176;2022-10-16T03:41:38;98249.06;;;15.45;100.00
49611;BME280;35515;48.766;9.176;2022-10-16T03:44:05;98245.16;;;15.41;100.00
49611;BME280;35515;48.766;9.176;2022-10-16T03:46:31;98246.13;;;15.35;100.00
49611;BME280;35515;48.766;9.176;2022-10-16T03:48:58;98248.50;;;15.31;100.00
49611;BME280;35515;48.766;9.176;2022-10-16T03:51:24;98243.78;;;15.27;100.00
49611;BME280;35515;48.766;9.176;2022-10-16T03:53:51;98256.59;;;15.26;100.00
49611;BME280;35515;48.766;9.176;2022-10-16T03:56:19;98254.69;;;15.27;100.00
49611;BME280;35515;48.766;9.176;2022-10-16T03:58:46;98258.97;;;15.23;100.00
49611;BME280;35515;48.766;9.176;2022-10-16T04:01:12;98253.03;;;15.26;100.00
49611;BME280;35515;48.766;9.176;2022-10-16T04:03:39;98243.66;;;15.21;100.00
49611;BME280;35515;48.766;9.176;2022-10-16T04:06:05;98248.16;;;15.28;100.00
49611;BME280;35515;48.766;9.176;2022-10-16T04:08:32;98253.78;;;15.21;100.00
49611;BME280;35515;48.766;9.176;2022-10-16T04:11:00;98248.56;;;15.19;100.00
49611;BME280;35515;48.766;9.176;2022-10-16T04:13:28;98254.22;;;15.18;100.00
49611;BME280;35515;48.766;9.176;2022-10-16T04:15:54;98253.03;;;15.26;100.00
49611;BME280;35515;48.766;9.176;2022-10-16T04:18:21;98243.53;;;15.28;100.00
49611;BME280;35515;48.766;9.176;2022-10-16T04:20:48;98248.88;;;15.23;100.00
49611;BME280;35515;48.766;9.176;2022-10-16T04:23:14;98254.47;;;15.16;100.00
49611;BME280;35515;48.766;9.176;2022-10-16T04:25:41;98253.78;;;15.21;100.00
49611;BME280;35515;48.766;9.176;2022-10-16T04:28:07;98247.59;;;15.14;100.00
49611;BME280;35515;48.766;9.176;2022-10-16T04:30:37;98247.03;;;15.12;100.00
49611;BME280;35515;48.766;9.176;2022-10-16T04:33:04;98246.66;;;15.08;100.00
49611;BME280;35515;48.766;9.176;2022-10-16T04:35:30;98256.53;;;15.09;100.00
49611;BME280;35515;48.766;9.176;2022-10-16T04:37:57;98252.13;;;15.08;100.00
49611;BME280;35515;48.766;9.176;2022-10-16T04:40:24;98248.22;;;15.04;100.00
49611;BME280;35515;48.766;9.176;2022-10-16T04:42:50;98250.69;;;15.17;100.00
49611;BME280;35515;48.766;9.176;2022-10-16T04:45:17;98256.03;;;15.12;100.00
49611;BME280;35515;48.766;9.176;2022-10-16T04:47:44;98262.09;;;15.14;100.00
49611;BME280;35515;48.766;9.176;2022-10-16T04:50:11;98264.22;;;15.12;100.00
49611;BME280;35515;48.766;9.176;2022-10-16T04:52:37;98265.28;;;15.11;100.00
49611;BME280;35515;48.766;9.176;2022-10-16T04:55:05;98271.91;;;15.15;100.00
49611;BME280;35515;48.766;9.176;2022-10-16T04:57:32;98279.78;;;15.12;100.00
49611;BME280;35515;48.766;9.176;2022-10-16T04:59:59;98274.44;;;15.05;100.00
49611;BME280;35515;48.766;9.176;2022-10-16T05:02:26;98279.91;;;15.05;100.00
49611;BME280;35515;48.766;9.176;2022-10-16T05:04:53;98285.34;;;15.05;100.00
49611;BME280;35515;48.766;9.176;2022-10-16T05:07:20;98287.59;;;15.08;100.00
49611;BME280;35515;48.766;9.176;2022-10-16T05:09:46;98290.31;;;15.08;100.00
49611;BME280;35515;48.766;9.176;2022-10-16T05:12:16;98289.72;;;15.06;100.00
49611;BME280;35515;48.766;9.176;2022-10-16T05:14:42;98290.06;;;15.10;100.00
49611;BME280;35515;48.766;9.176;2022-10-16T05:17:09;98292.81;;;15.10;100.00
49611;BME280;35515;48.766;9.176;2022-10-16T05:19:35;98283.56;;;15.11;100.00
49611;BME280;35515;48.766;9.176;2022-10-16T05:22:03;98282.75;;;15.10;100.00
49611;BME280;35515;48.766;9.176;2022-10-16T05:24:30;98282.13;;;15.20;100.00
49611;BME280;35515;48.766;9.176;2022-10-16T05:26:56;98279.03;;;15.16;100.00
49611;BME280;35515;48.766;9.176;2022-10-16T05:29:23;98282.81;;;15.27;100.00
49611;BME280;35515;48.766;9.176;2022-10-16T05:31:51;98276.16;;;15.23;100.00
49611;BME280;35515;48.766;9.176;2022-10-16T05:34:18;98281.63;;;15.23;100.00
49611;BME280;35515;48.766;9.176;2022-10-16T05:36:45;98283.56;;;15.11;100.00
49611;BME280;35515;48.766;9.176;2022-10-16T05:39:15;98291.25;;;15.02;100.00
49611;BME280;35515;48.766;9.176;2022-10-16T05:41:44;98297.22;;;14.99;100.00
49611;BME280;35515;48.766;9.176;2022-10-16T05:44:11;98308.34;;;15.09;100.00
49611;BME280;35515;48.766;9.176;2022-10-16T05:46:37;98303.59;;;15.16;100.00
49611;BME280;35515;48.766;9.176;2022-10-16T05:49:04;98300.53;;;15.01;100.00
49611;BME280;35515;48.766;9.176;2022-10-16T05:51:30;98296.41;;;14.98;100.00
49611;BME280;35515;48.766;9.176;2022-10-16T05:53:57;98296.50;;;15.03;100.00
49611;BME280;35515;48.766;9.176;2022-10-16T05:56:25;98302.78;;;15.04;100.00
49611;BME280;35515;48.766;9.176;2022-10-16T05:58:54;98306.69;;;15.08;100.00
49611;BME280;35515;48.766;9.176;2022-10-16T06:01:20;98310.38;;;15.02;100.00
49611;BME280;35515;48.766;9.176;2022-10-16T06:03:49;98312.28;;;15.01;100.00
49611;BME280;35515;48.766;9.176;2022-10-16T06:06:18;98315.81;;;15.02;100.00
49611;BME280;35515;48.766;9.176;2022-10-16T06:08:49;98325.19;;;15.06;100.00
49611;BME280;35515;48.766;9.176;2022-10-16T06:11:21;98320.22;;;15.03;100.00
49611;BME280;35515;48.766;9.176;2022-10-16T06:13:51;98324.38;;;15.05;100.00
49611;BME280;35515;48.766;9.176;2022-10-16T06:16:18;98327.34;;;15.04;100.00
49611;BME280;35515;48.766;9.176;2022-10-16T06:18:47;98334.91;;;15.02;100.00
49611;BME280;35515;48.766;9.176;2022-10-16T06:21:18;98332.31;;;15.07;100.00
49611;BME280;35515;48.766;9.176;2022-10-16T06:23:45;98336.00;;;15.01;100.00
49611;BME280;35515;48.766;9.176;2022-10-16T06:26:14;98332.44;;;15.00;100.00
49611;BME280;35515;48.766;9.176;2022-10-16T06:28:40;98336.22;;;14.99;100.00
49611;BME280;35515;48.766;9.176;2022-10-16T06:31:10;98337.75;;;15.07;100.00
49611;BME280;35515;48.766;9.176;2022-10-16T06:33:40;98338.25;;;15.04;100.00
49611;BME280;35515;48.766;9.176;2022-10-16T06:36:09;98340.25;;;15.09;100.00
49611;BME280;35515;48.766;9.176;2022-10-16T06:38:38;98337.75;;;15.07;100.00
49611;BME280;35515;48.766;9.176;2022-10-16T06:41:06;98335.63;;;15.09;100.00
49611;BME280;35515;48.766;9.176;2022-10-16T06:43:33;98341.66;;;15.11;100.00
49611;BME280;35515;48.766;9.176;2022-10-16T06:46:02;98346.06;;;15.12;100.00
49611;BME280;35515;48.766;9.176;2022-10-16T06:48:31;98352.69;;;15.16;100.00
49611;BME280;35515;48.766;9.176;2022-10-16T06:50:58;98354.38;;;15.17;100.00
49611;BME280;35515;48.766;9.176;2022-10-16T06:53:27;98357.72;;;15.19;100.00
49611;BME280;35515;48.766;9.176;2022-10-16T06:55:54;98370.25;;;15.20;100.00
49611;BME280;35515;48.766;9.176;2022-10-16T06:58:21;98364.34;;;15.24;100.00
49611;BME280;35515;48.766;9.176;2022-10-16T07:00:48;98366.34;;;15.28;100.00
49611;BME280;35515;48.766;9.176;2022-10-16T07:03:15;98371.19;;;15.38;100.00
49611;BME280;35515;48.766;9.176;2022-10-16T07:05:43;98365.25;;;15.41;100.00
49611;BME280;35515;48.766;9.176;2022-10-16T07:08:10;98372.84;;;15.51;100.00
49611;BME280;35515;48.766;9.176;2022-10-16T07:10:37;98376.41;;;15.51;100.00
49611;BME280;35515;48.766;9.176;2022-10-16T07:13:03;98383.63;;;15.58;100.00
49611;BME280;35515;48.766;9.176;2022-10-16T07:15:32;98378.13;;;15.69;100.00
49611;BME280;35515;48.766;9.176;2022-10-16T07:17:59;98386.09;;;15.71;100.00
49611;BME280;35515;48.766;9.176;2022-10-16T07:20:26;98390.84;;;15.76;100.00
49611;BME280;35515;48.766;9.176;2022-10-16T07:22:54;98390.13;;;15.80;100.00
49611;BME280;35515;48.766;9.176;2022-10-16T07:25:21;98399.03;;;15.87;100.00
49611;BME280;35515;48.766;9.176;2022-10-16T07:27:49;98408.88;;;15.88;100.00
49611;BME280;35515;48.766;9.176;2022-10-16T07:30:16;98420.88;;;15.87;100.00
49611;BME280;35515;48.766;9.176;2022-10-16T07:32:43;98417.56;;;15.85;100.00
49611;BME280;35515;48.766;9.176;2022-10-16T07:35:09;98428.84;;;15.77;100.00
49611;BME280;35515;48.766;9.176;2022-10-16T07:37:36;98423.38;;;15.77;100.00
49611;BME280;35515;48.766;9.176;2022-10-16T07:40:06;98419.94;;;15.82;100.00
49611;BME280;35515;48.766;9.176;2022-10-16T07:42:32;98411.03;;;15.86;100.00
49611;BME280;35515;48.766;9.176;2022-10-16T07:44:59;98411.59;;;15.88;100.00
49611;BME280;35515;48.766;9.176;2022-10-16T07:47:25;98411.59;;;15.88;100.00
49611;BME280;35515;48.766;9.176;2022-10-16T07:49:52;98419.91;;;15.94;100.00
49611;BME280;35515;48.766;9.176;2022-10-16T07:52:19;98426.44;;;15.93;100.00
49611;BME280;35515;48.766;9.176;2022-10-16T07:54:45;98430.59;;;15.95;100.00
49611;BME280;35515;48.766;9.176;2022-10-16T07:57:13;98440.69;;;15.95;100.00
49611;BME280;35515;48.766;9.176;2022-10-16T07:59:44;98440.69;;;15.95;100.00
49611;BME280;35515;48.766;9.176;2022-10-16T08:02:11;98443.19;;;15.96;100.00
49611;BME280;35515;48.766;9.176;2022-10-16T08:04:38;98433.31;;;15.95;100.00
49611;BME280;35515;48.766;9.176;2022-10-16T08:07:06;98429.03;;;15.99;100.00
49611;BME280;35515;48.766;9.176;2022-10-16T08:09:33;98433.78;;;16.04;100.00
49611;BME280;35515;48.766;9.176;2022-10-16T08:11:59;98438.28;;;16.10;100.00
49611;BME280;35515;48.766;9.176;2022-10-16T08:14:28;98435.63;;;16.15;100.00
49611;BME280;35515;48.766;9.176;2022-10-16T08:16:55;98427.78;;;16.19;100.00
49611;BME280;35515;48.766;9.176;2022-10-16T08:19:21;98430.72;;;16.29;100.00
49611;BME280;35515;48.766;9.176;2022-10-16T08:21:48;98433.56;;;16.34;99.65
49611;BME280;35515;48.766;9.176;2022-10-16T08:24:14;98434.47;;;16.40;98.99
49611;BME280;35515;48.766;9.176;2022-10-16T08:26:41;98435.75;;;16.49;98.86
49611;BME280;35515;48.766;9.176;2022-10-16T08:29:08;98441.72;;;16.46;99.68
49611;BME280;35515;48.766;9.176;2022-10-16T08:31:36;98451.53;;;16.47;99.42
49611;BME280;35515;48.766;9.176;2022-10-16T08:34:02;98452.41;;;16.48;99.82
49611;BME280;35515;48.766;9.176;2022-10-16T08:36:29;98464.75;;;16.50;99.40
49611;BME280;35515;48.766;9.176;2022-10-16T08:38:55;98463.75;;;16.57;99.02
49611;BME280;35515;48.766;9.176;2022-10-16T08:41:49;98470.75;;;16.64;98.43
49611;BME280;35515;48.766;9.176;2022-10-16T08:44:34;98465.75;;;16.61;98.90
49611;BME280;35515;48.766;9.176;2022-10-16T08:47:10;98464.13;;;16.77;96.58
49611;BME280;35515;48.766;9.176;2022-10-16T08:49:41;98466.78;;;16.72;96.57
49611;BME280;35515;48.766;9.176;2022-10-16T08:52:10;98464.28;;;16.70;96.15
49611;BME280;35515;48.766;9.176;2022-10-16T08:54:41;98465.72;;;16.73;96.37
49611;BME280;35515;48.766;9.176;2022-10-16T08:57:11;98466.78;;;16.72;95.73
49611;BME280;35515;48.766;9.176;2022-10-16T08:59:39;98476.41;;;16.75;95.61
49611;BME280;35515;48.766;9.176;2022-10-16T09:02:23;98481.53;;;16.71;95.66
49611;BME280;35515;48.766;9.176;2022-10-16T09:05:02;98474.00;;;16.78;95.19
49611;BME280;35515;48.766;9.176;2022-10-16T09:07:41;98471.94;;;16.85;94.16
49611;BME280;35515;48.766;9.176;2022-10-16T09:10:24;98460.88;;;16.92;93.42
49611;BME280;35515;48.766;9.176;2022-10-16T09:13:00;98462.38;;;17.00;92.29
49611;BME280;35515;48.766;9.176;2022-10-16T09:15:31;98458.22;;;17.14;88.63
49611;BME280;35515;48.766;9.176;2022-10-16T09:18:07;98452.59;;;17.21;88.38
49611;BME280;35515;48.766;9.176;2022-10-16T09:20:44;98463.53;;;17.21;89.34
49611;BME280;35515;48.766;9.176;2022-10-16T09:23:16;98472.56;;;17.21;89.98
49611;BME280;35515;48.766;9.176;2022-10-16T09:25:45;98474.75;;;17.19;90.67
49611;BME280;35515;48.766;9.176;2022-10-16T09:28:14;98483.59;;;17.27;90.09
49611;BME280;35515;48.766;9.176;2022-10-16T09:30:41;98488.75;;;17.23;91.33
49611;BME280;35515;48.766;9.176;2022-10-16T09:33:11;98481.47;;;17.29;91.04
49611;BME280;35515;48.766;9.176;2022-10-16T09:35:40;98490.91;;;17.38;90.46
49611;BME280;35515;48.766;9.176;2022-10-16T09:38:08;98492.88;;;17.43;89.96
49611;BME280;35515;48.766;9.176;2022-10-16T09:40:37;98487.59;;;17.36;90.50
49611;BME280;35515;48.766;9.176;2022-10-16T09:43:15;98482.94;;;17.36;91.30
49611;BME280;35515;48.766;9.176;2022-10-16T09:45:53;98492.72;;;17.49;88.69
49611;BME280;35515;48.766;9.176;2022-10-16T09:48:22;98486.81;;;17.58;86.04
49611;BME280;35515;48.766;9.176;2022-10-16T09:50:56;98498.03;;;17.56;86.61
49611;BME280;35515;48.766;9.176;2022-10-16T09:53:23;98503.66;;;17.66;86.52
49611;BME280;35515;48.766;9.176;2022-10-16T09:55:50;98500.41;;;17.69;87.12
49611;BME280;35515;48.766;9.176;2022-10-16T09:58:17;98484.50;;;17.88;85.71
49611;BME280;35515;48.766;9.176;2022-10-16T10:00:49;98495.63;;;17.99;83.91
49611;BME280;35515;48.766;9.176;2022-10-16T10:03:33;98494.66;;;17.88;85.46
49611;BME280;35515;48.766;9.176;2022-10-16T10:06:14;98503.78;;;17.94;85.20
49611;BME280;35515;48.766;9.176;2022-10-16T10:08:59;98504.91;;;17.93;85.64
49611;BME280;35515;48.766;9.176;2022-10-16T10:11:38;98515.09;;;17.97;85.08
49611;BME280;35515;48.766;9.176;2022-10-16T10:14:05;98509.28;;;17.94;85.72
49611;BME280;35515;48.766;9.176;2022-10-16T10:16:32;98516.75;;;17.98;84.30
49611;BME280;35515;48.766;9.176;2022-10-16T10:19:00;98513.91;;;18.10;82.59
49611;BME280;35515;48.766;9.176;2022-10-16T10:21:27;98521.16;;;18.21;81.27
49611;BME280;35515;48.766;9.176;2022-10-16T10:23:56;98516.75;;;18.20;80.40
49611;BME280;35515;48.766;9.176;2022-10-16T10:26:24;98518.34;;;18.16;81.91
49611;BME280;35515;48.766;9.176;2022-10-16T10:28:59;98514.53;;;18.17;81.19
49611;BME280;35515;48.766;9.176;2022-10-16T10:31:34;98508.47;;;18.15;81.68
49611;BME280;35515;48.766;9.176;2022-10-16T10:34:21;98508.84;;;18.24;80.19
49611;BME280;35515;48.766;9.176;2022-10-16T10:36:56;98504.19;;;18.25;80.81
49611;BME280;35515;48.766;9.176;2022-10-16T10:39:32;98505.34;;;18.29;80.46
49611;BME280;35515;48.766;9.176;2022-10-16T10:42:19;98512.59;;;18.40;79.47
49611;BME280;35515;48.766;9.176;2022-10-16T10:48:00;98517.09;;;18.46;80.19
49611;BME280;35515;48.766;9.176;2022-10-16T10:50:38;98522.16;;;18.60;78.18
49611;BME280;35515;48.766;9.176;2022-10-16T10:53:18;98513.16;;;18.64;78.48
49611;BME280;35515;48.766;9.176;2022-10-16T10:55:52;98517.56;;;18.65;78.63
49611;BME280;35515;48.766;9.176;2022-10-16T10:58:39;98517.28;;;18.67;77.82
49611;BME280;35515;48.766;9.176;2022-10-16T11:01:13;98516.88;;;18.80;77.08
49611;BME280;35515;48.766;9.176;2022-10-16T11:03:51;98518.03;;;18.84;76.75
49611;BME280;35515;48.766;9.176;2022-10-16T11:06:26;98511.00;;;18.94;75.56
49611;BME280;35515;48.766;9.176;2022-10-16T11:08:59;98514.06;;;18.97;78.61
49611;BME280;35515;48.766;9.176;2022-10-16T11:11:31;98506.16;;;19.01;78.64
49611;BME280;35515;48.766;9.176;2022-10-16T11:14:02;98505.94;;;19.08;77.99
49611;BME280;35515;48.766;9.176;2022-10-16T11:16:34;98505.38;;;19.05;78.69
49611;BME280;35515;48.766;9.176;2022-10-16T11:19:03;98502.31;;;19.02;79.19
49611;BME280;35515;48.766;9.176;2022-10-16T11:21:39;98504.81;;;19.03;78.64
49611;BME280;35515;48.766;9.176;2022-10-16T11:24:15;98500.34;;;19.25;77.62
49611;BME280;35515;48.766;9.176;2022-10-16T11:26:46;98503.50;;;19.44;73.78
49611;BME280;35515;48.766;9.176;2022-10-16T11:29:19;98507.81;;;19.34;74.47
49611;BME280;35515;48.766;9.176;2022-10-16T11:31:51;98516.28;;;19.28;75.35
49611;BME280;35515;48.766;9.176;2022-10-16T11:34:23;98501.47;;;19.29;75.32
49611;BME280;35515;48.766;9.176;2022-10-16T11:36:56;98498.56;;;19.46;76.29
49611;BME280;35515;48.766;9.176;2022-10-16T11:39:27;98505.44;;;19.48;76.12
49611;BME280;35515;48.766;9.176;2022-10-16T11:41:56;98504.31;;;19.44;76.89
49611;BME280;35515;48.766;9.176;2022-10-16T11:44:36;98499.44;;;19.51;73.38
49611;BME280;35515;48.766;9.176;2022-10-16T11:47:11;98490.97;;;19.58;70.22
49611;BME280;35515;48.766;9.176;2022-10-16T11:49:40;98490.09;;;19.52;69.73
49611;BME280;35515;48.766;9.176;2022-10-16T11:52:15;98490.38;;;19.56;73.52
49611;BME280;35515;48.766;9.176;2022-10-16T11:54:46;98497.38;;;19.74;73.66
49611;BME280;35515;48.766;9.176;2022-10-16T11:57:17;98502.25;;;19.62;73.68
49611;BME280;35515;48.766;9.176;2022-10-16T11:59:48;98488.25;;;19.68;73.17
49611;BME280;35515;48.766;9.176;2022-10-16T12:02:29;98482.91;;;19.84;70.65
49611;BME280;35515;48.766;9.176;2022-10-16T12:05:06;98485.78;;;19.67;71.06
49611;BME280;35515;48.766;9.176;2022-10-16T12:07:43;98477.00;;;19.65;70.63
49611;BME280;35515;48.766;9.176;2022-10-16T12:10:21;98490.16;;;19.63;71.92
49611;BME280;35515;48.766;9.176;2022-10-16T12:12:47;98479.78;;;19.70;71.16
49611;BME280;35515;48.766;9.176;2022-10-16T12:15:23;98475.94;;;19.76;68.95
49611;BME280;35515;48.766;9.176;2022-10-16T12:17:54;98486.47;;;19.84;68.37
49611;BME280;35515;48.766;9.176;2022-10-16T12:20:24;98493.16;;;19.99;67.97
49611;BME280;35515;48.766;9.176;2022-10-16T12:22:54;98478.25;;;19.90;68.51
49611;BME280;35515;48.766;9.176;2022-10-16T12:25:24;98482.69;;;19.96;67.64
49611;BME280;35515;48.766;9.176;2022-10-16T12:27:59;98483.25;;;19.93;67.40
49611;BME280;35515;48.766;9.176;2022-10-16T12:30:28;98495.44;;;20.17;65.84
49611;BME280;35515;48.766;9.176;2022-10-16T12:32:56;98494.88;;;20.20;64.63
49611;BME280;35515;48.766;9.176;2022-10-16T12:35:27;98489.47;;;20.36;64.27
49611;BME280;35515;48.766;9.176;2022-10-16T12:38:05;98494.47;;;20.49;63.37
49611;BME280;35515;48.766;9.176;2022-10-16T12:40:34;98491.16;;;20.52;63.21
49611;BME280;35515;48.766;9.176;2022-10-16T12:43:12;98486.22;;;20.49;64.61
49611;BME280;35515;48.766;9.176;2022-10-16T12:45:39;98486.78;;;20.57;64.25
49611;BME280;35515;48.766;9.176;2022-10-16T12:48:19;98482.13;;;20.62;63.32
49611;BME280;35515;48.766;9.176;2022-10-16T12:50:46;98482.94;;;20.68;63.65
49611;BME280;35515;48.766;9.176;2022-10-16T12:53:22;98489.00;;;20.60;63.95
49611;BME280;35515;48.766;9.176;2022-10-16T12:55:57;98499.97;;;20.49;65.85
49611;BME280;35515;48.766;9.176;2022-10-16T12:58:42;98506.03;;;20.46;66.17
49611;BME280;35515;48.766;9.176;2022-10-16T13:01:21;98507.09;;;20.45;66.63
49611;BME280;35515;48.766;9.176;2022-10-16T13:06:53;98497.41;;;20.32;67.06
49611;BME280;35515;48.766;9.176;2022-10-16T13:09:36;98506.53;;;20.38;66.84
49611;BME280;35515;48.766;9.176;2022-10-16T13:12:18;98513.91;;;20.22;68.12